EAG5678 SCEL-SBGR
Flight info
| Callsign | EAG5678 |
|---|---|
| Flight time | N/A |
| Altitude | 35000 |
| Route | NEBEG7C NEBEG UL531 ESITO UT652 SIKOB UM400 SOTSA/N0478F370 UM400 SAVLU UZ121 BUXUK |
| Aircraft | B77W/H-SDE1E2E3FGHIJ2J3J4J5M1RWXY/LB1D1 |
Departure
| Time | 2026-05-06 19:16 |
|---|---|
| Airport | Comodoro Arturo Merino Benítez International Airport (SCEL) |
Arrival
| Time | N/A |
|---|---|
| Airport | São Paulo/Guarulhos–Governor André Franco Montoro International Airport (SBGR) |
| Time | Latitude | Longitude | Altitude | Speed | Heading |
|---|---|---|---|---|---|
| 2026-05-06 18:40 | -33.40080 | -70.79702 | 1569 ft | 0 kts | 357° |
| 2026-05-06 19:00 | -33.40093 | -70.79701 | 1569 ft | 4 kts | 358° |
| 2026-05-06 19:01 | -33.40116 | -70.79700 | 1569 ft | 4 kts | 353° |
| 2026-05-06 19:01 | -33.40138 | -70.79694 | 1569 ft | 4 kts | 324° |
| 2026-05-06 19:01 | -33.40152 | -70.79677 | 1569 ft | 4 kts | 288° |
| 2026-05-06 19:01 | -33.40157 | -70.79647 | 1569 ft | 4 kts | 270° |
| 2026-05-06 19:02 | -33.40156 | -70.79615 | 1569 ft | 3 kts | 267° |
| 2026-05-06 19:02 | -33.40156 | -70.79609 | 1569 ft | 0 kts | 267° |
| 2026-05-06 19:06 | -33.40156 | -70.79610 | 1569 ft | 0 kts | 267° |
| 2026-05-06 19:08 | -33.40158 | -70.79660 | 1569 ft | 14 kts | 267° |
| 2026-05-06 19:08 | -33.40162 | -70.79800 | 1569 ft | 17 kts | 268° |
| 2026-05-06 19:08 | -33.40166 | -70.79923 | 1569 ft | 13 kts | 268° |
| 2026-05-06 19:08 | -33.40134 | -70.80008 | 1569 ft | 9 kts | 353° |
| 2026-05-06 19:09 | -33.40075 | -70.80010 | 1569 ft | 8 kts | 358° |
| 2026-05-06 19:09 | -33.40019 | -70.80012 | 1569 ft | 8 kts | 358° |
| 2026-05-06 19:09 | -33.39966 | -70.80015 | 1569 ft | 7 kts | 358° |
| 2026-05-06 19:09 | -33.39916 | -70.80019 | 1569 ft | 7 kts | 355° |
| 2026-05-06 19:10 | -33.39858 | -70.80025 | 1569 ft | 10 kts | 355° |
| 2026-05-06 19:10 | -33.39782 | -70.80033 | 1569 ft | 12 kts | 355° |
| 2026-05-06 19:10 | -33.39689 | -70.80038 | 1569 ft | 15 kts | 358° |
| 2026-05-06 19:10 | -33.39539 | -70.80044 | 1569 ft | 30 kts | 358° |
| 2026-05-06 19:11 | -33.39290 | -70.80057 | 1569 ft | 38 kts | 358° |
| 2026-05-06 19:11 | -33.39044 | -70.80070 | 1569 ft | 33 kts | 358° |
| 2026-05-06 19:11 | -33.38825 | -70.80083 | 1569 ft | 30 kts | 357° |
| 2026-05-06 19:11 | -33.38629 | -70.80092 | 1569 ft | 27 kts | 358° |
| 2026-05-06 19:12 | -33.38454 | -70.80099 | 1569 ft | 24 kts | 356° |
| 2026-05-06 19:12 | -33.38295 | -70.80112 | 1569 ft | 22 kts | 356° |
| 2026-05-06 19:12 | -33.38143 | -70.80121 | 1569 ft | 21 kts | 358° |
| 2026-05-06 19:12 | -33.37997 | -70.80126 | 1569 ft | 20 kts | 358° |
| 2026-05-06 19:13 | -33.37850 | -70.80135 | 1569 ft | 22 kts | 357° |
| 2026-05-06 19:13 | -33.37697 | -70.80143 | 1569 ft | 21 kts | 357° |
| 2026-05-06 19:13 | -33.37553 | -70.80151 | 1569 ft | 20 kts | 357° |
| 2026-05-06 19:13 | -33.37414 | -70.80158 | 1569 ft | 19 kts | 358° |
| 2026-05-06 19:14 | -33.37284 | -70.80165 | 1569 ft | 19 kts | 357° |
| 2026-05-06 19:14 | -33.37158 | -70.80181 | 1569 ft | 18 kts | 336° |
| 2026-05-06 19:14 | -33.37107 | -70.80261 | 1569 ft | 12 kts | 278° |
| 2026-05-06 19:14 | -33.37138 | -70.80351 | 1569 ft | 15 kts | 214° |
| 2026-05-06 19:15 | -33.37311 | -70.80369 | 1569 ft | 46 kts | 177° |
| 2026-05-06 19:15 | -33.37863 | -70.80339 | 1569 ft | 111 kts | 178° |
| 2026-05-06 19:15 | -33.38834 | -70.80285 | 1572 ft | 165 kts | 176° |
| 2026-05-06 19:15 | -33.40091 | -70.80232 | 1718 ft | 196 kts | 172° |
| 2026-05-06 19:16 | -33.41523 | -70.80173 | 2171 ft | 210 kts | 174° |
| 2026-05-06 19:16 | -33.42965 | -70.80065 | 3050 ft | 202 kts | 176° |
| 2026-05-06 19:16 | -33.44356 | -70.79981 | 3807 ft | 202 kts | 177° |
| 2026-05-06 19:16 | -33.45829 | -70.79900 | 4120 ft | 220 kts | 179° |
| 2026-05-06 19:17 | -33.47425 | -70.79816 | 4424 ft | 241 kts | 180° |
| 2026-05-06 19:17 | -33.49010 | -70.79731 | 4745 ft | 259 kts | 180° |
| 2026-05-06 19:17 | -33.50878 | -70.79631 | 5169 ft | 277 kts | 181° |
| 2026-05-06 19:17 | -33.52820 | -70.79528 | 5986 ft | 278 kts | 181° |
| 2026-05-06 19:18 | -33.54763 | -70.79395 | 6854 ft | 281 kts | 180° |
| 2026-05-06 19:18 | -33.56744 | -70.79173 | 7513 ft | 290 kts | 178° |
| 2026-05-06 19:18 | -33.58767 | -70.78903 | 8228 ft | 295 kts | 177° |
| 2026-05-06 19:18 | -33.60834 | -70.78624 | 8865 ft | 303 kts | 177° |
| 2026-05-06 19:19 | -33.62952 | -70.78348 | 9530 ft | 308 kts | 178° |
| 2026-05-06 19:19 | -33.65100 | -70.78077 | 10240 ft | 312 kts | 178° |
| 2026-05-06 19:19 | -33.67305 | -70.77803 | 10757 ft | 325 kts | 178° |
| 2026-05-06 19:19 | -33.69603 | -70.77522 | 11231 ft | 341 kts | 178° |
| 2026-05-06 19:20 | -33.72034 | -70.77227 | 11648 ft | 360 kts | 178° |
| 2026-05-06 19:20 | -33.73706 | -70.77003 | 11947 ft | 371 kts | 175° |
| 2026-05-06 19:20 | -33.77045 | -70.75575 | 12509 ft | 402 kts | 151° |
| 2026-05-06 19:20 | -33.79186 | -70.73328 | 13136 ft | 417 kts | 132° |
| 2026-05-06 19:21 | -33.80701 | -70.70328 | 13868 ft | 424 kts | 113° |
| 2026-05-06 19:21 | -33.81483 | -70.66888 | 14626 ft | 428 kts | 99° |
| 2026-05-06 19:21 | -33.81788 | -70.64540 | 15056 ft | 432 kts | 99° |
| 2026-05-06 19:21 | -33.82394 | -70.59713 | 15887 ft | 441 kts | 93° |
| 2026-05-06 19:22 | -33.82428 | -70.57261 | 16338 ft | 444 kts | 86° |
| 2026-05-06 19:22 | -33.82161 | -70.53544 | 17006 ft | 448 kts | 82° |
| 2026-05-06 19:22 | -33.81895 | -70.49772 | 17623 ft | 456 kts | 84° |
| 2026-05-06 19:22 | -33.81756 | -70.45939 | 18260 ft | 462 kts | 86° |
| 2026-05-06 19:23 | -33.81712 | -70.42048 | 18876 ft | 468 kts | 86° |
| 2026-05-06 19:23 | -33.81596 | -70.38094 | 19412 ft | 476 kts | 85° |
| 2026-05-06 19:23 | -33.81453 | -70.34099 | 19985 ft | 482 kts | 85° |
| 2026-05-06 19:23 | -33.81320 | -70.30044 | 20553 ft | 488 kts | 85° |
| 2026-05-06 19:24 | -33.81191 | -70.25943 | 21117 ft | 493 kts | 85° |
| 2026-05-06 19:24 | -33.81068 | -70.21795 | 21606 ft | 501 kts | 85° |
| 2026-05-06 19:24 | -33.80946 | -70.17577 | 22097 ft | 506 kts | 85° |
| 2026-05-06 19:24 | -33.80808 | -70.13331 | 22604 ft | 511 kts | 85° |
| 2026-05-06 19:25 | -33.80663 | -70.09048 | 23044 ft | 517 kts | 85° |
| 2026-05-06 19:25 | -33.80513 | -70.04743 | 23368 ft | 526 kts | 85° |
| 2026-05-06 19:25 | -33.80361 | -70.00333 | 23804 ft | 530 kts | 84° |
| 2026-05-06 19:25 | -33.80207 | -69.95898 | 24270 ft | 534 kts | 84° |
| 2026-05-06 19:26 | -33.80117 | -69.91409 | 24704 ft | 540 kts | 87° |
| 2026-05-06 19:26 | -33.80271 | -69.86871 | 25135 ft | 546 kts | 90° |
| 2026-05-06 19:26 | -33.80600 | -69.82232 | 25454 ft | 554 kts | 93° |
| 2026-05-06 19:26 | -33.81046 | -69.77662 | 25786 ft | 559 kts | 95° |
| 2026-05-06 19:27 | -33.81569 | -69.73007 | 26154 ft | 563 kts | 95° |
| 2026-05-06 19:27 | -33.82086 | -69.68327 | 26519 ft | 567 kts | 95° |
| 2026-05-06 19:27 | -33.82576 | -69.63611 | 26885 ft | 570 kts | 95° |
| 2026-05-06 19:27 | -33.83047 | -69.58855 | 27235 ft | 574 kts | 95° |
| 2026-05-06 19:28 | -33.83511 | -69.54055 | 27441 ft | 579 kts | 95° |
| 2026-05-06 19:28 | -33.83976 | -69.49232 | 27730 ft | 583 kts | 95° |
| 2026-05-06 19:28 | -33.84464 | -69.44376 | 28057 ft | 585 kts | 96° |
| 2026-05-06 19:28 | -33.84958 | -69.39497 | 28414 ft | 587 kts | 95° |
| 2026-05-06 19:29 | -33.85438 | -69.34613 | 28787 ft | 588 kts | 95° |
| 2026-05-06 19:29 | -33.85911 | -69.29705 | 29060 ft | 591 kts | 95° |
| 2026-05-06 19:29 | -33.86378 | -69.24832 | 29304 ft | 594 kts | 95° |
| 2026-05-06 19:29 | -33.86873 | -69.19890 | 29577 ft | 596 kts | 96° |
| 2026-05-06 19:30 | -33.87356 | -69.14866 | 29894 ft | 597 kts | 95° |
| 2026-05-06 19:30 | -33.87812 | -69.09962 | 30229 ft | 597 kts | 95° |
| 2026-05-06 19:30 | -33.88271 | -69.04986 | 30586 ft | 597 kts | 95° |
| 2026-05-06 19:30 | -33.88727 | -69.00018 | 30975 ft | 596 kts | 95° |
| 2026-05-06 19:31 | -33.89160 | -68.95067 | 31341 ft | 594 kts | 93° |
| 2026-05-06 19:31 | -33.89203 | -68.90094 | 31623 ft | 592 kts | 84° |
| 2026-05-06 19:31 | -33.87662 | -68.80532 | 32626 ft | 575 kts | 67° |
| 2026-05-06 19:32 | -33.86217 | -68.76135 | 32893 ft | 571 kts | 61° |
| 2026-05-06 19:32 | -33.84471 | -68.71788 | 33208 ft | 568 kts | 58° |
| 2026-05-06 19:32 | -33.82659 | -68.67577 | 33622 ft | 566 kts | 57° |
| 2026-05-06 19:32 | -33.80877 | -68.63386 | 34161 ft | 560 kts | 57° |
| 2026-05-06 19:33 | -33.79148 | -68.59196 | 34621 ft | 558 kts | 58° |
| 2026-05-06 19:33 | -33.77477 | -68.55040 | 34781 ft | 560 kts | 58° |
| 2026-05-06 19:33 | -33.74132 | -68.46581 | 34786 ft | 560 kts | 59° |
| 2026-05-06 19:34 | -33.70830 | -68.38118 | 34787 ft | 558 kts | 59° |
| 2026-05-06 19:34 | -33.67505 | -68.29690 | 34790 ft | 558 kts | 59° |
| 2026-05-06 19:35 | -33.64166 | -68.21270 | 34790 ft | 559 kts | 59° |
| 2026-05-06 19:35 | -33.60821 | -68.12862 | 34787 ft | 557 kts | 59° |
| 2026-05-06 19:36 | -33.57476 | -68.04474 | 34789 ft | 557 kts | 59° |
| 2026-05-06 19:36 | -33.54123 | -67.96087 | 34793 ft | 559 kts | 59° |
| 2026-05-06 19:37 | -33.50755 | -67.87683 | 34790 ft | 559 kts | 59° |
| 2026-05-06 19:37 | -33.47403 | -67.79341 | 34790 ft | 559 kts | 59° |
| 2026-05-06 19:38 | -33.44028 | -67.70959 | 34786 ft | 558 kts | 59° |
| 2026-05-06 19:38 | -33.40652 | -67.62596 | 34779 ft | 558 kts | 58° |
| 2026-05-06 19:39 | -33.37295 | -67.54229 | 34784 ft | 557 kts | 59° |
| 2026-05-06 19:39 | -33.33905 | -67.45879 | 34769 ft | 558 kts | 58° |
| 2026-05-06 19:40 | -33.30501 | -67.37544 | 34760 ft | 558 kts | 58° |
| 2026-05-06 19:40 | -33.27101 | -67.29224 | 34755 ft | 557 kts | 58° |
| 2026-05-06 19:41 | -33.23696 | -67.20904 | 34747 ft | 557 kts | 58° |
| 2026-05-06 19:41 | -33.20322 | -67.12617 | 34749 ft | 557 kts | 58° |
| 2026-05-06 19:42 | -33.16926 | -67.04320 | 34731 ft | 553 kts | 57° |
| 2026-05-06 19:42 | -33.13528 | -66.96090 | 34719 ft | 551 kts | 57° |
| 2026-05-06 19:43 | -33.10158 | -66.87944 | 34715 ft | 550 kts | 57° |
| 2026-05-06 19:43 | -33.06764 | -66.79741 | 34715 ft | 550 kts | 57° |
| 2026-05-06 19:44 | -33.03360 | -66.71566 | 34710 ft | 550 kts | 57° |
| 2026-05-06 19:44 | -32.99945 | -66.63385 | 34712 ft | 550 kts | 57° |
| 2026-05-06 19:45 | -32.96559 | -66.55285 | 34713 ft | 550 kts | 57° |
| 2026-05-06 19:45 | -32.93159 | -66.47162 | 34705 ft | 545 kts | 56° |
| 2026-05-06 19:46 | -32.89834 | -66.39082 | 34706 ft | 541 kts | 57° |
| 2026-05-06 19:46 | -32.86493 | -66.31089 | 34709 ft | 539 kts | 56° |
| 2026-05-06 19:47 | -32.83124 | -66.23104 | 34711 ft | 539 kts | 56° |
| 2026-05-06 19:47 | -32.79752 | -66.15125 | 34716 ft | 540 kts | 56° |
| 2026-05-06 19:48 | -32.76370 | -66.07142 | 34719 ft | 540 kts | 56° |
| 2026-05-06 19:48 | -32.72931 | -65.99298 | 34719 ft | 537 kts | 55° |
| 2026-05-06 19:49 | -32.69473 | -65.91425 | 34723 ft | 538 kts | 56° |
| 2026-05-06 19:49 | -32.66009 | -65.83535 | 34729 ft | 539 kts | 56° |
| 2026-05-06 19:50 | -32.62543 | -65.75651 | 34730 ft | 538 kts | 56° |
| 2026-05-06 19:50 | -32.59104 | -65.67753 | 34845 ft | 541 kts | 56° |
| 2026-05-06 19:51 | -32.57376 | -65.63795 | 35219 ft | 539 kts | 56° |
| 2026-05-06 19:51 | -32.55652 | -65.59865 | 35632 ft | 537 kts | 56° |
| 2026-05-06 19:51 | -32.53927 | -65.55944 | 35958 ft | 536 kts | 56° |
| 2026-05-06 19:51 | -32.52200 | -65.52026 | 36237 ft | 536 kts | 56° |
| 2026-05-06 19:52 | -32.50486 | -65.48094 | 36457 ft | 538 kts | 56° |
| 2026-05-06 19:52 | -32.48757 | -65.44162 | 36714 ft | 538 kts | 56° |
| 2026-05-06 19:52 | -32.45274 | -65.36316 | 36738 ft | 537 kts | 55° |
| 2026-05-06 19:53 | -32.41820 | -65.28556 | 36738 ft | 535 kts | 55° |
| 2026-05-06 19:53 | -32.38361 | -65.20796 | 36742 ft | 531 kts | 55° |
| 2026-05-06 19:54 | -32.34962 | -65.13031 | 36742 ft | 532 kts | 56° |
| 2026-05-06 19:54 | -32.31635 | -65.05212 | 36746 ft | 532 kts | 56° |
| 2026-05-06 19:55 | -32.28291 | -64.97411 | 36748 ft | 531 kts | 56° |
| 2026-05-06 19:55 | -32.24942 | -64.89629 | 36743 ft | 531 kts | 56° |
| 2026-05-06 19:56 | -32.21583 | -64.81835 | 36707 ft | 535 kts | 55° |
| 2026-05-06 19:56 | -32.18211 | -64.73909 | 36683 ft | 545 kts | 54° |
| 2026-05-06 19:57 | -32.14779 | -64.65929 | 36684 ft | 549 kts | 54° |
| 2026-05-06 19:57 | -32.11315 | -64.57913 | 36684 ft | 546 kts | 54° |
| 2026-05-06 19:58 | -32.07867 | -64.49957 | 36684 ft | 543 kts | 54° |
| 2026-05-06 19:58 | -32.04428 | -64.42040 | 36691 ft | 541 kts | 54° |
| 2026-05-06 19:59 | -32.01018 | -64.34205 | 36688 ft | 540 kts | 54° |
| 2026-05-06 19:59 | -31.97585 | -64.26335 | 36684 ft | 540 kts | 54° |
| 2026-05-06 20:00 | -31.94150 | -64.18478 | 36688 ft | 539 kts | 54° |
| 2026-05-06 20:00 | -31.90729 | -64.10622 | 36690 ft | 538 kts | 54° |
| 2026-05-06 20:01 | -31.87301 | -64.02796 | 36692 ft | 537 kts | 54° |
| 2026-05-06 20:01 | -31.83853 | -63.94985 | 36694 ft | 537 kts | 54° |
| 2026-05-06 20:02 | -31.80404 | -63.87184 | 36696 ft | 537 kts | 54° |
| 2026-05-06 20:02 | -31.76975 | -63.79438 | 36696 ft | 538 kts | 54° |
| 2026-05-06 20:03 | -31.73964 | -63.72948 | 36681 ft | 540 kts | 53° |
| 2026-05-06 20:03 | -31.69713 | -63.63982 | 36693 ft | 540 kts | 53° |
| 2026-05-06 20:04 | -31.66074 | -63.56253 | 36694 ft | 539 kts | 53° |
| 2026-05-06 20:04 | -31.62444 | -63.48545 | 36692 ft | 539 kts | 53° |
| 2026-05-06 20:05 | -31.58879 | -63.40845 | 36691 ft | 540 kts | 53° |
| 2026-05-06 20:05 | -31.55239 | -63.33121 | 36690 ft | 540 kts | 53° |
| 2026-05-06 20:06 | -31.52212 | -63.26733 | 36689 ft | 539 kts | 53° |
| 2026-05-06 20:06 | -31.48569 | -63.19055 | 36676 ft | 539 kts | 53° |
| 2026-05-06 20:07 | -31.44940 | -63.11340 | 36670 ft | 541 kts | 54° |
| 2026-05-06 20:07 | -31.41421 | -63.03534 | 36670 ft | 542 kts | 54° |
| 2026-05-06 20:08 | -31.37884 | -62.95729 | 36673 ft | 543 kts | 54° |
| 2026-05-06 20:08 | -31.34369 | -62.87910 | 36674 ft | 542 kts | 54° |
| 2026-05-06 20:09 | -31.30833 | -62.80169 | 36674 ft | 542 kts | 54° |
| 2026-05-06 20:09 | -31.27272 | -62.72398 | 36673 ft | 542 kts | 54° |
| 2026-05-06 20:10 | -31.23709 | -62.64630 | 36669 ft | 541 kts | 54° |
| 2026-05-06 20:10 | -31.20150 | -62.56883 | 36669 ft | 541 kts | 53° |
| 2026-05-06 20:11 | -31.16608 | -62.49137 | 36671 ft | 541 kts | 54° |
| 2026-05-06 20:11 | -31.13070 | -62.41427 | 36669 ft | 541 kts | 53° |
| 2026-05-06 20:12 | -31.09484 | -62.33678 | 36669 ft | 541 kts | 53° |
| 2026-05-06 20:12 | -31.05907 | -62.25961 | 36669 ft | 541 kts | 53° |
| 2026-05-06 20:13 | -31.02318 | -62.18220 | 36669 ft | 541 kts | 53° |
| 2026-05-06 20:13 | -30.98739 | -62.10541 | 36669 ft | 542 kts | 53° |
| 2026-05-06 20:14 | -30.95124 | -62.02804 | 36669 ft | 543 kts | 53° |
| 2026-05-06 20:14 | -30.91504 | -61.95065 | 36669 ft | 543 kts | 53° |
| 2026-05-06 20:15 | -30.87916 | -61.87407 | 36669 ft | 542 kts | 53° |
| 2026-05-06 20:15 | -30.84326 | -61.79666 | 36669 ft | 543 kts | 54° |
| 2026-05-06 20:16 | -30.80734 | -61.71942 | 36669 ft | 542 kts | 53° |
| 2026-05-06 20:16 | -30.77102 | -61.64238 | 36669 ft | 542 kts | 53° |
| 2026-05-06 20:17 | -30.73483 | -61.56579 | 36669 ft | 542 kts | 53° |
| 2026-05-06 20:17 | -30.69851 | -61.48895 | 36669 ft | 542 kts | 53° |
| 2026-05-06 20:18 | -30.66184 | -61.41249 | 36669 ft | 542 kts | 53° |
| 2026-05-06 20:18 | -30.62494 | -61.33609 | 36669 ft | 542 kts | 53° |
| 2026-05-06 20:19 | -30.58806 | -61.25980 | 36669 ft | 541 kts | 53° |
| 2026-05-06 20:19 | -30.55113 | -61.18350 | 36669 ft | 541 kts | 52° |
| 2026-05-06 20:20 | -30.51437 | -61.10721 | 36669 ft | 542 kts | 53° |
| 2026-05-06 20:20 | -30.47795 | -61.03140 | 36669 ft | 542 kts | 53° |
| 2026-05-06 20:21 | -30.44101 | -60.95511 | 36669 ft | 542 kts | 52° |
| 2026-05-06 20:21 | -30.40406 | -60.87905 | 36669 ft | 542 kts | 52° |
| 2026-05-06 20:22 | -30.36700 | -60.80294 | 36669 ft | 542 kts | 52° |
| 2026-05-06 20:22 | -30.32996 | -60.72695 | 36669 ft | 542 kts | 53° |
| 2026-05-06 20:23 | -30.29305 | -60.65089 | 36669 ft | 541 kts | 52° |
| 2026-05-06 20:23 | -30.25606 | -60.57554 | 36669 ft | 541 kts | 52° |
| 2026-05-06 20:24 | -30.21880 | -60.49981 | 36669 ft | 541 kts | 52° |
| 2026-05-06 20:24 | -30.18164 | -60.42404 | 36668 ft | 543 kts | 54° |
| 2026-05-06 20:25 | -30.15072 | -60.34442 | 36669 ft | 549 kts | 62° |
| 2026-05-06 20:25 | -30.12504 | -60.26095 | 36669 ft | 553 kts | 64° |
| 2026-05-06 20:26 | -30.09941 | -60.17715 | 36670 ft | 554 kts | 63° |
| 2026-05-06 20:26 | -30.07276 | -60.09361 | 36669 ft | 554 kts | 63° |
| 2026-05-06 20:27 | -30.04602 | -60.01027 | 36669 ft | 553 kts | 63° |
| 2026-05-06 20:27 | -30.01953 | -59.92697 | 36669 ft | 553 kts | 63° |
| 2026-05-06 20:28 | -29.99275 | -59.84377 | 36669 ft | 553 kts | 63° |
| 2026-05-06 20:28 | -29.96599 | -59.76106 | 36669 ft | 553 kts | 63° |
| 2026-05-06 20:29 | -29.93899 | -59.67783 | 36669 ft | 553 kts | 63° |
| 2026-05-06 20:29 | -29.91196 | -59.59478 | 36669 ft | 553 kts | 63° |
| 2026-05-06 20:30 | -29.87133 | -59.47028 | 36669 ft | 553 kts | 63° |
| 2026-05-06 20:31 | -29.84434 | -59.38784 | 36669 ft | 553 kts | 63° |
| 2026-05-06 20:31 | -29.81710 | -59.30484 | 36669 ft | 553 kts | 62° |
| 2026-05-06 20:32 | -29.78985 | -59.22188 | 36669 ft | 553 kts | 63° |
| 2026-05-06 20:32 | -29.76274 | -59.13894 | 36669 ft | 553 kts | 62° |
| 2026-05-06 20:33 | -29.73547 | -59.05674 | 36669 ft | 553 kts | 62° |
| 2026-05-06 20:33 | -29.70799 | -58.97413 | 36669 ft | 553 kts | 62° |
| 2026-05-06 20:34 | -29.68048 | -58.89149 | 36669 ft | 553 kts | 62° |
| 2026-05-06 20:34 | -29.65364 | -58.80822 | 36669 ft | 553 kts | 63° |
| 2026-05-06 20:35 | -29.62715 | -58.72500 | 36669 ft | 554 kts | 63° |
| 2026-05-06 20:35 | -29.60066 | -58.64232 | 36669 ft | 554 kts | 63° |
| 2026-05-06 20:36 | -29.57395 | -58.55922 | 36669 ft | 554 kts | 63° |
| 2026-05-06 20:36 | -29.54739 | -58.47610 | 36669 ft | 554 kts | 63° |
| 2026-05-06 20:37 | -29.52103 | -58.39299 | 36669 ft | 554 kts | 63° |
| 2026-05-06 20:37 | -29.49437 | -58.30997 | 36669 ft | 554 kts | 63° |
| 2026-05-06 20:38 | -29.46746 | -58.22710 | 36666 ft | 554 kts | 63° |
| 2026-05-06 20:38 | -29.44057 | -58.14444 | 36668 ft | 558 kts | 63° |
| 2026-05-06 20:39 | -29.41324 | -58.06060 | 36677 ft | 561 kts | 63° |
| 2026-05-06 20:39 | -29.38298 | -57.97862 | 36678 ft | 557 kts | 60° |
| 2026-05-06 20:40 | -29.35196 | -57.89677 | 36678 ft | 560 kts | 62° |
| 2026-05-06 20:40 | -29.32136 | -57.81452 | 36684 ft | 560 kts | 61° |
| 2026-05-06 20:41 | -29.29066 | -57.73246 | 36700 ft | 559 kts | 62° |
| 2026-05-06 20:41 | -29.26006 | -57.65078 | 36701 ft | 557 kts | 61° |
| 2026-05-06 20:42 | -29.23008 | -57.56922 | 36725 ft | 554 kts | 63° |
| 2026-05-06 20:42 | -29.20220 | -57.48770 | 36722 ft | 554 kts | 63° |
| 2026-05-06 20:43 | -29.17388 | -57.40570 | 36726 ft | 554 kts | 63° |
| 2026-05-06 20:43 | -29.14535 | -57.32381 | 36731 ft | 554 kts | 63° |
| 2026-05-06 20:44 | -29.11675 | -57.24189 | 36728 ft | 554 kts | 63° |
| 2026-05-06 20:44 | -29.08875 | -57.16067 | 36813 ft | 545 kts | 63° |
| 2026-05-06 20:45 | -29.06076 | -57.08036 | 36815 ft | 542 kts | 63° |
| 2026-05-06 20:45 | -29.03268 | -57.00020 | 36815 ft | 543 kts | 63° |
| 2026-05-06 20:46 | -29.00450 | -56.91999 | 36816 ft | 544 kts | 63° |
| 2026-05-06 20:46 | -28.97661 | -56.84014 | 36815 ft | 545 kts | 63° |
| 2026-05-06 20:47 | -28.94837 | -56.76003 | 36815 ft | 544 kts | 63° |
| 2026-05-06 20:47 | -28.91991 | -56.67987 | 36815 ft | 544 kts | 63° |
| 2026-05-06 20:48 | -28.89140 | -56.59969 | 36811 ft | 545 kts | 63° |
| 2026-05-06 20:48 | -28.86279 | -56.51922 | 36810 ft | 548 kts | 63° |
| 2026-05-06 20:49 | -28.83426 | -56.43856 | 36793 ft | 550 kts | 63° |
| 2026-05-06 20:49 | -28.80565 | -56.35822 | 36806 ft | 550 kts | 63° |
| 2026-05-06 20:50 | -28.77676 | -56.27766 | 36816 ft | 549 kts | 64° |
| 2026-05-06 20:50 | -28.74779 | -56.19701 | 36810 ft | 549 kts | 63° |
| 2026-05-06 20:51 | -28.71895 | -56.11642 | 36812 ft | 549 kts | 64° |
| 2026-05-06 20:51 | -28.69089 | -56.03543 | 36816 ft | 550 kts | 64° |
| 2026-05-06 20:52 | -28.66307 | -55.95485 | 36816 ft | 551 kts | 65° |
| 2026-05-06 20:52 | -28.63494 | -55.87369 | 36816 ft | 551 kts | 64° |
| 2026-05-06 20:53 | -28.60654 | -55.79266 | 36816 ft | 551 kts | 65° |
| 2026-05-06 20:53 | -28.57808 | -55.71163 | 36816 ft | 551 kts | 64° |
| 2026-05-06 20:54 | -28.55445 | -55.64440 | 36816 ft | 550 kts | 64° |
| 2026-05-06 20:54 | -28.52600 | -55.56374 | 36816 ft | 550 kts | 64° |
| 2026-05-06 20:55 | -28.49749 | -55.48321 | 36859 ft | 547 kts | 64° |
| 2026-05-06 20:55 | -28.46912 | -55.40319 | 36870 ft | 542 kts | 64° |
| 2026-05-06 20:56 | -28.44111 | -55.32436 | 36870 ft | 537 kts | 64° |
| 2026-05-06 20:56 | -28.41312 | -55.24512 | 36868 ft | 543 kts | 64° |
| 2026-05-06 20:57 | -28.38498 | -55.16533 | 36866 ft | 546 kts | 64° |
| 2026-05-06 20:57 | -28.35665 | -55.08572 | 36867 ft | 547 kts | 64° |
| 2026-05-06 20:58 | -28.32826 | -55.00546 | 36862 ft | 548 kts | 65° |
| 2026-05-06 20:58 | -28.29953 | -54.92523 | 36862 ft | 548 kts | 65° |
| 2026-05-06 20:59 | -28.27067 | -54.84506 | 36878 ft | 547 kts | 65° |
| 2026-05-06 20:59 | -28.24190 | -54.76518 | 36870 ft | 547 kts | 65° |
| 2026-05-06 21:00 | -28.21324 | -54.68572 | 36873 ft | 547 kts | 65° |